Time;durP1;ratioP1;P1;durP2;ratioP2;P2;SDS_P1;SDS_P2;PMS_P1;PMS_P2;Temp;Humidity;BMP_temperature;BMP_pressure;BME280_temperature;BME280_humidity;BME280_pressure;Samples;Min_cycle;Max_cycle;Signal;HPM_P1;HPM_P2
2022/06/05 00:00:11;;;;;;;6.00;5.18;;;;;;;;;;5034161;28;20238;-86
2022/06/05 00:02:45;;;;;;;5.88;5.38;;;;;;;;;;5047672;28;20226;-86
2022/06/05 00:05:15;;;;;;;5.80;5.18;;;;;;;;;;5052997;28;20241;-86
2022/06/05 00:07:45;;;;;;;5.78;5.20;;;;;;;;;;5053631;28;20206;-86
2022/06/05 00:10:18;;;;;;;5.40;5.00;;;;;;;;;;5052907;28;20240;-86
2022/06/05 00:12:47;;;;;;;6.15;5.50;;;;;;;;;;5053375;28;20288;-86
2022/06/05 00:15:15;;;;;;;6.20;5.70;;;;;;;;;;5052930;28;20234;-86
2022/06/05 00:17:43;;;;;;;6.28;5.57;;;;;;;;;;5053893;28;20226;-86
2022/06/05 00:20:11;;;;;;;5.90;4.93;;;;;;;;;;5053737;28;20229;-86
2022/06/05 00:22:39;;;;;;;7.15;4.85;;;;;;;;;;5053797;28;20264;-86
2022/06/05 00:25:06;;;;;;;5.38;4.95;;;;;;;;;;5053570;28;20241;-86
2022/06/05 00:27:35;;;;;;;5.93;5.50;;;;;;;;;;5054305;28;20206;-86
2022/06/05 00:30:05;;;;;;;8.98;5.28;;;;;;;;;;5052295;28;20241;-86
2022/06/05 00:32:38;;;;;;;7.03;5.60;;;;;;;;;;5053467;28;20230;-86
2022/06/05 00:35:07;;;;;;;5.60;5.20;;;;;;;;;;5052772;28;20666;-86
2022/06/05 00:37:38;;;;;;;6.45;5.80;;;;;;;;;;5053581;28;20321;-86
2022/06/05 00:40:19;;;;;;;6.47;5.77;;;;;;;;;;5052998;28;20233;-86
2022/06/05 00:42:46;;;;;;;8.63;5.40;;;;;;;;;;5052906;28;20237;-86
2022/06/05 00:45:14;;;;;;;7.20;5.90;;;;;;;;;;5052057;28;20698;-86
2022/06/05 00:47:42;;;;;;;7.13;6.10;;;;;;;;;;5052604;28;20214;-86
2022/06/05 00:50:14;;;;;;;8.70;5.90;;;;;;;;;;5052020;28;20234;-86
2022/06/05 00:52:42;;;;;;;7.17;5.90;;;;;;;;;;5052778;28;20664;-86
2022/06/05 00:55:11;;;;;;;6.70;6.10;;;;;;;;;;5051867;28;20785;-86
2022/06/05 00:57:38;;;;;;;7.17;6.27;;;;;;;;;;5052662;28;20234;-86
2022/06/05 01:00:09;;;;;;;6.60;5.85;;;;;;;;;;5051623;28;20237;-86
2022/06/05 01:02:36;;;;;;;6.40;5.87;;;;;;;;;;5038902;28;20233;-86
2022/06/05 01:05:04;;;;;;;7.77;6.50;;;;;;;;;;5031953;28;20651;-86
2022/06/05 01:07:32;;;;;;;7.53;6.63;;;;;;;;;;5023245;28;20203;-86
2022/06/05 01:09:59;;;;;;;6.87;6.27;;;;;;;;;;5027045;28;20235;-86
2022/06/05 01:12:32;;;;;;;6.53;5.93;;;;;;;;;;5032162;28;20214;-85
2022/06/05 01:15:03;;;;;;;7.00;6.07;;;;;;;;;;5031738;28;20230;-86
2022/06/05 01:17:34;;;;;;;8.27;6.03;;;;;;;;;;5032204;28;20210;-86
2022/06/05 01:20:04;;;;;;;7.37;6.67;;;;;;;;;;5030985;28;20356;-86
2022/06/05 01:22:51;;;;;;;7.90;6.77;;;;;;;;;;5032095;28;20265;-85
2022/06/05 01:25:25;;;;;;;7.03;6.37;;;;;;;;;;5031523;28;20241;-86
2022/06/05 01:27:56;;;;;;;9.97;6.33;;;;;;;;;;5032774;28;20190;-86
2022/06/05 01:30:24;;;;;;;8.27;7.07;;;;;;;;;;5031939;28;20311;-86
2022/06/05 01:32:55;;;;;;;8.23;6.77;;;;;;;;;;5031971;28;20219;-86
2022/06/05 01:35:26;;;;;;;6.90;6.17;;;;;;;;;;5031489;28;20261;-86
2022/06/05 01:37:56;;;;;;;8.87;6.83;;;;;;;;;;5032088;28;20218;-85
2022/06/05 01:40:25;;;;;;;7.50;6.90;;;;;;;;;;5031346;28;20313;-86
2022/06/05 01:42:57;;;;;;;8.50;7.07;;;;;;;;;;5031898;28;20222;-85
2022/06/05 01:45:25;;;;;;;8.57;7.23;;;;;;;;;;5031528;28;20234;-86
2022/06/05 01:47:55;;;;;;;7.47;6.73;;;;;;;;;;5031991;28;20210;-86
2022/06/05 01:50:24;;;;;;;8.20;6.63;;;;;;;;;;5031681;28;20602;-86
2022/06/05 01:52:55;;;;;;;8.17;6.13;;;;;;;;;;5031712;28;20219;-85
2022/06/05 01:55:24;;;;;;;10.30;6.90;;;;;;;;;;5031416;28;20313;-86
2022/06/05 01:57:52;;;;;;;9.23;6.90;;;;;;;;;;5031769;28;20226;-85
2022/06/05 02:00:22;;;;;;;9.90;6.93;;;;;;;;;;5031627;28;20246;-85
2022/06/05 02:02:53;;;;;;;16.97;6.87;;;;;;;;;;5031893;28;20241;-86
2022/06/05 02:05:22;;;;;;;10.03;6.97;;;;;;;;;;5031233;28;20239;-86
2022/06/05 02:07:50;;;;;;;9.03;6.97;;;;;;;;;;5031694;28;20206;-86
2022/06/05 02:10:20;;;;;;;7.63;6.83;;;;;;;;;;5031342;28;20242;-86
2022/06/05 02:12:47;;;;;;;8.20;7.17;;;;;;;;;;5032075;28;20703;-86
2022/06/05 02:15:15;;;;;;;7.50;6.80;;;;;;;;;;5031365;28;20241;-86
2022/06/05 02:17:43;;;;;;;6.77;6.07;;;;;;;;;;5031823;28;20223;-86
2022/06/05 02:20:11;;;;;;;7.13;6.47;;;;;;;;;;5031385;28;20613;-85
2022/06/05 02:22:39;;;;;;;7.83;7.03;;;;;;;;;;5031597;28;20233;-86
2022/06/05 02:25:07;;;;;;;8.13;7.10;;;;;;;;;;5030922;28;20234;-86
2022/06/05 02:27:34;;;;;;;7.80;7.10;;;;;;;;;;5031606;28;20192;-86
2022/06/05 02:30:01;;;;;;;7.70;6.90;;;;;;;;;;5031391;28;20230;-86
2022/06/05 02:32:33;;;;;;;8.13;7.30;;;;;;;;;;5031842;28;20237;-85
2022/06/05 02:35:07;;;;;;;8.40;7.40;;;;;;;;;;5031013;28;20589;-86
2022/06/05 02:37:42;;;;;;;11.80;8.23;;;;;;;;;;5031888;28;20207;-86
2022/06/05 02:40:11;;;;;;;10.00;7.63;;;;;;;;;;5031196;28;20753;-86
2022/06/05 02:42:41;;;;;;;8.93;7.93;;;;;;;;;;5032174;28;20233;-86
2022/06/05 02:45:16;;;;;;;11.23;7.87;;;;;;;;;;5030971;28;20230;-86
2022/06/05 02:47:46;;;;;;;8.30;7.40;;;;;;;;;;5031926;28;20183;-87
2022/06/05 02:50:18;;;;;;;7.93;7.23;;;;;;;;;;5031228;28;20234;-86
2022/06/05 02:52:45;;;;;;;8.40;7.03;;;;;;;;;;5034982;28;20229;-86
2022/06/05 02:55:15;;;;;;;7.57;6.97;;;;;;;;;;5038504;28;20242;-86
2022/06/05 02:57:42;;;;;;;12.90;7.50;;;;;;;;;;5039482;28;20227;-86
2022/06/05 03:00:13;;;;;;;7.70;6.87;;;;;;;;;;5039200;28;20614;-86
2022/06/05 03:05:26;;;;;;;8.10;7.40;;;;;;;;;;5038686;28;20602;-86
2022/06/05 03:07:53;;;;;;;10.73;8.00;;;;;;;;;;5039084;28;20202;-86
2022/06/05 03:10:20;;;;;;;9.80;7.97;;;;;;;;;;5038955;28;20239;-85
2022/06/05 03:12:47;;;;;;;8.27;7.30;;;;;;;;;;5039218;28;20666;-86
2022/06/05 03:15:15;;;;;;;8.13;7.23;;;;;;;;;;5038756;28;20812;-86
2022/06/05 03:17:42;;;;;;;7.63;6.93;;;;;;;;;;5039058;28;20253;-86
2022/06/05 03:20:10;;;;;;;10.23;7.97;;;;;;;;;;5039142;28;20238;-86
2022/06/05 03:22:39;;;;;;;8.80;7.97;;;;;;;;;;5038755;28;20239;-86
2022/06/05 03:25:06;;;;;;;8.60;7.77;;;;;;;;;;5037845;28;20250;-86
2022/06/05 03:27:33;;;;;;;7.83;7.07;;;;;;;;;;5036739;28;20215;-86
2022/06/05 03:30:01;;;;;;;7.87;7.17;;;;;;;;;;5034971;28;20233;-86
2022/06/05 03:32:28;;;;;;;7.70;7.00;;;;;;;;;;5035904;28;20222;-86
2022/06/05 03:34:55;;;;;;;9.20;8.37;;;;;;;;;;5036185;28;20230;-86
2022/06/05 03:37:22;;;;;;;8.57;7.73;;;;;;;;;;5036144;28;20230;-86
2022/06/05 03:39:51;;;;;;;8.80;7.97;;;;;;;;;;5035376;28;20236;-86
2022/06/05 03:42:18;;;;;;;9.43;8.27;;;;;;;;;;5034931;28;20194;-86
2022/06/05 03:44:45;;;;;;;9.27;8.47;;;;;;;;;;5034228;28;20242;-86
2022/06/05 03:47:12;;;;;;;9.00;8.10;;;;;;;;;;5034211;28;20207;-86
2022/06/05 03:49:40;;;;;;;8.60;7.70;;;;;;;;;;5033883;28;20210;-86
2022/06/05 03:52:08;;;;;;;9.10;7.93;;;;;;;;;;5034119;28;20309;-86
2022/06/05 03:54:35;;;;;;;11.77;8.07;;;;;;;;;;5033792;28;20207;-86
2022/06/05 03:57:04;;;;;;;10.93;8.30;;;;;;;;;;5034610;28;20207;-86
2022/06/05 03:59:31;;;;;;;8.17;7.00;;;;;;;;;;5033598;28;20702;-86
2022/06/05 04:01:59;;;;;;;10.20;8.47;;;;;;;;;;5034183;28;20210;-86
2022/06/05 04:04:26;;;;;;;8.60;7.90;;;;;;;;;;5032688;28;20728;-87
2022/06/05 04:06:53;;;;;;;9.63;8.80;;;;;;;;;;5033766;28;20220;-87
2022/06/05 04:09:20;;;;;;;9.30;8.40;;;;;;;;;;5033831;28;20225;-86
2022/06/05 04:11:47;;;;;;;7.47;6.60;;;;;;;;;;5033133;28;20242;-86
2022/06/05 04:14:15;;;;;;;7.27;6.63;;;;;;;;;;5033555;28;20230;-87
2022/06/05 04:16:43;;;;;;;7.93;7.23;;;;;;;;;;5033116;28;20245;-86
2022/06/05 04:19:11;;;;;;;8.33;7.50;;;;;;;;;;5033754;28;20237;-86
2022/06/05 04:21:39;;;;;;;9.20;7.90;;;;;;;;;;5033389;28;20238;-86
2022/06/05 04:24:06;;;;;;;8.70;7.87;;;;;;;;;;5033497;28;20234;-87
2022/06/05 04:26:34;;;;;;;9.47;7.43;;;;;;;;;;5033308;28;20246;-87
2022/06/05 04:29:01;;;;;;;9.33;8.20;;;;;;;;;;5033877;28;20573;-84
2022/06/05 04:31:31;;;;;;;6.80;6.23;;;;;;;;;;5033181;28;20733;-86
2022/06/05 04:33:59;;;;;;;7.53;6.80;;;;;;;;;;5033210;28;20310;-87
2022/06/05 04:36:26;;;;;;;7.80;6.70;;;;;;;;;;5055278;28;20222;-87
2022/06/05 04:38:53;;;;;;;8.03;7.20;;;;;;;;;;5056534;28;20218;-88
2022/06/05 04:41:20;;;;;;;6.50;6.00;;;;;;;;;;5056419;28;20245;-87
2022/06/05 04:43:47;;;;;;;7.53;6.93;;;;;;;;;;5054862;28;20237;-87
2022/06/05 04:46:14;;;;;;;7.77;7.17;;;;;;;;;;5053557;28;20234;-87
2022/06/05 04:48:43;;;;;;;6.80;6.30;;;;;;;;;;5052720;28;20202;-86
2022/06/05 04:51:12;;;;;;;6.80;6.10;;;;;;;;;;5040098;28;20249;-86
2022/06/05 04:53:40;;;;;;;7.73;7.03;;;;;;;;;;5032964;28;20262;-87
2022/06/05 04:56:08;;;;;;;8.33;7.50;;;;;;;;;;5032544;28;20231;-86
2022/06/05 04:58:35;;;;;;;8.07;7.37;;;;;;;;;;5033037;28;20229;-87
2022/06/05 05:01:02;;;;;;;6.50;6.00;;;;;;;;;;5032307;28;20246;-87
2022/06/05 05:03:30;;;;;;;8.27;6.53;;;;;;;;;;5032207;28;20234;-86
2022/06/05 05:05:58;;;;;;;7.23;6.63;;;;;;;;;;5031913;28;20726;-86
2022/06/05 05:08:25;;;;;;;7.43;6.73;;;;;;;;;;5033058;28;20213;-86
2022/06/05 05:10:52;;;;;;;7.63;6.30;;;;;;;;;;5033412;28;20241;-86
2022/06/05 05:13:19;;;;;;;7.33;6.73;;;;;;;;;;5033805;28;20230;-86
2022/06/05 05:15:49;;;;;;;8.40;7.20;;;;;;;;;;5032168;28;20230;-86
2022/06/05 05:18:16;;;;;;;7.40;6.70;;;;;;;;;;5032610;28;20687;-86
2022/06/05 05:20:43;;;;;;;7.50;6.87;;;;;;;;;;5032163;28;20241;-87
2022/06/05 05:23:12;;;;;;;7.87;7.27;;;;;;;;;;5032314;28;20246;-87
2022/06/05 05:25:39;;;;;;;10.03;7.57;;;;;;;;;;5032027;28;20230;-86
2022/06/05 05:28:07;;;;;;;9.10;8.13;;;;;;;;;;5032494;28;20206;-87
2022/06/05 05:30:34;;;;;;;8.63;7.80;;;;;;;;;;5031847;28;20234;-86
2022/06/05 05:33:01;;;;;;;8.77;7.87;;;;;;;;;;5032120;28;20230;-86
2022/06/05 05:35:28;;;;;;;8.30;7.50;;;;;;;;;;5031744;28;20238;-86
2022/06/05 05:37:55;;;;;;;8.40;7.60;;;;;;;;;;5032357;28;20238;-86
2022/06/05 05:43:08;;;;;;;9.50;8.33;;;;;;;;;;5032705;28;20637;-86
2022/06/05 05:45:35;;;;;;;9.23;8.37;;;;;;;;;;5032044;28;20585;-85
2022/06/05 05:48:02;;;;;;;9.97;8.70;;;;;;;;;;5032297;28;20679;-83
2022/06/05 05:50:29;;;;;;;11.20;9.20;;;;;;;;;;5032444;28;20235;-84
2022/06/05 05:52:56;;;;;;;9.60;8.17;;;;;;;;;;5032107;28;20230;-84
2022/06/05 05:55:25;;;;;;;12.73;9.20;;;;;;;;;;5031382;28;20245;-84
2022/06/05 05:57:52;;;;;;;10.97;9.13;;;;;;;;;;5032039;28;20217;-84
2022/06/05 06:00:21;;;;;;;10.23;8.53;;;;;;;;;;5031935;28;20239;-84
2022/06/05 06:02:48;;;;;;;9.90;8.70;;;;;;;;;;5032740;28;20227;-83
2022/06/05 06:05:17;;;;;;;9.10;8.27;;;;;;;;;;5033965;28;20242;-83
2022/06/05 06:07:44;;;;;;;9.40;8.43;;;;;;;;;;5034895;28;20246;-83
2022/06/05 06:10:12;;;;;;;9.97;8.70;;;;;;;;;;5032428;28;20235;-83
2022/06/05 06:12:41;;;;;;;9.57;8.67;;;;;;;;;;5035123;28;20218;-84
2022/06/05 06:15:09;;;;;;;9.77;8.77;;;;;;;;;;5034151;28;20241;-84
2022/06/05 06:17:36;;;;;;;8.87;8.07;;;;;;;;;;5037927;28;20215;-85
2022/06/05 06:20:03;;;;;;;9.27;8.40;;;;;;;;;;5036909;28;20354;-85
2022/06/05 06:22:30;;;;;;;9.00;8.17;;;;;;;;;;5034216;28;20245;-84
2022/06/05 06:24:57;;;;;;;9.60;8.70;;;;;;;;;;5031574;28;20234;-84
2022/06/05 06:27:24;;;;;;;9.23;8.30;;;;;;;;;;5034459;28;20203;-84
2022/06/05 06:29:54;;;;;;;10.17;9.23;;;;;;;;;;5036710;28;20621;-83
2022/06/05 06:32:21;;;;;;;9.47;8.67;;;;;;;;;;5036610;28;20195;-84
2022/06/05 06:34:48;;;;;;;9.85;9.05;;;;;;;;;;5035300;28;20683;-82
2022/06/05 06:37:16;;;;;;;9.77;8.90;;;;;;;;;;5035636;28;20210;-82
2022/06/05 06:39:43;;;;;;;9.67;8.87;;;;;;;;;;5030791;28;20230;-83
2022/06/05 06:42:10;;;;;;;10.50;9.60;;;;;;;;;;5032219;28;20241;-82
2022/06/05 06:44:38;;;;;;;9.80;8.90;;;;;;;;;;5032863;28;20217;-83
2022/06/05 06:47:06;;;;;;;10.13;9.13;;;;;;;;;;5037300;28;20213;-83
2022/06/05 06:49:35;;;;;;;9.60;8.70;;;;;;;;;;5033207;28;20203;-84
2022/06/05 06:52:02;;;;;;;10.37;9.13;;;;;;;;;;5033831;28;20250;-82
2022/06/05 06:54:29;;;;;;;10.27;9.37;;;;;;;;;;5031315;28;20210;-82
2022/06/05 06:56:56;;;;;;;10.83;9.60;;;;;;;;;;5030106;28;20214;-81
2022/06/05 06:59:24;;;;;;;12.10;11.10;;;;;;;;;;5032877;28;20229;-81
2022/06/05 07:01:52;;;;;;;11.77;10.67;;;;;;;;;;5029767;28;20238;-81
2022/06/05 07:04:21;;;;;;;11.87;9.83;;;;;;;;;;5032041;28;20233;-81
2022/06/05 07:06:48;;;;;;;11.67;10.67;;;;;;;;;;5027588;28;20230;-81
2022/06/05 07:09:15;;;;;;;11.13;10.03;;;;;;;;;;5032388;28;20217;-81
2022/06/05 07:11:42;;;;;;;10.67;9.67;;;;;;;;;;5033371;28;20235;-81
2022/06/05 07:14:10;;;;;;;10.90;9.93;;;;;;;;;;5032913;28;20238;-81
2022/06/05 07:16:37;;;;;;;12.00;9.27;;;;;;;;;;5033341;28;20234;-80
2022/06/05 07:19:04;;;;;;;11.50;9.77;;;;;;;;;;5034805;28;20226;-81
2022/06/05 07:21:33;;;;;;;12.40;9.77;;;;;;;;;;5033791;28;20234;-82
2022/06/05 07:24:00;;;;;;;11.50;9.07;;;;;;;;;;5033529;28;20227;-81
2022/06/05 07:26:29;;;;;;;9.47;8.57;;;;;;;;;;5034407;28;20281;-82
2022/06/05 07:28:56;;;;;;;8.93;8.02;;;;;;;;;;5033722;28;20195;-82
2022/06/05 07:31:26;;;;;;;9.65;8.85;;;;;;;;;;5033576;28;20241;-82
2022/06/05 07:33:53;;;;;;;9.05;8.25;;;;;;;;;;5035252;28;20709;-81
2022/06/05 07:36:21;;;;;;;7.68;6.93;;;;;;;;;;5053051;28;20237;-82
2022/06/05 07:38:50;;;;;;;8.20;7.40;;;;;;;;;;5051542;28;20600;-82
2022/06/05 07:41:18;;;;;;;7.28;6.70;;;;;;;;;;5032915;28;20280;-82
2022/06/05 07:43:45;;;;;;;8.85;7.95;;;;;;;;;;5032103;28;20219;-82
2022/06/05 07:46:13;;;;;;;8.30;7.50;;;;;;;;;;5032755;28;20609;-83
2022/06/05 07:48:41;;;;;;;9.45;8.38;;;;;;;;;;5032202;28;20282;-83
2022/06/05 07:56:40;;;;;;;7.50;6.72;;;;;;;;;;5032235;28;20233;-83
2022/06/05 07:59:08;;;;;;;8.25;7.45;;;;;;;;;;5034828;28;20231;-82
2022/06/05 08:01:35;;;;;;;7.40;6.80;;;;;;;;;;5031961;28;20675;-83
2022/06/05 08:04:02;;;;;;;7.88;7.18;;;;;;;;;;5031664;28;20829;-83
2022/06/05 08:06:29;;;;;;;7.18;6.63;;;;;;;;;;5030970;28;20242;-82
2022/06/05 08:08:59;;;;;;;8.70;7.65;;;;;;;;;;5031197;28;20289;-85
2022/06/05 08:11:26;;;;;;;9.73;7.38;;;;;;;;;;5031604;28;20313;-84
2022/06/05 08:13:53;;;;;;;7.90;7.20;;;;;;;;;;5031351;28;20222;-83
2022/06/05 08:16:20;;;;;;;8.65;7.78;;;;;;;;;;5030950;28;20238;-83
2022/06/05 08:18:50;;;;;;;13.02;7.72;;;;;;;;;;5031005;28;20226;-83
2022/06/05 08:21:17;;;;;;;9.82;8.15;;;;;;;;;;5030269;28;20906;-82
2022/06/05 08:23:44;;;;;;;8.93;8.13;;;;;;;;;;5031054;28;20230;-83
2022/06/05 08:26:13;;;;;;;10.02;7.93;;;;;;;;;;5031537;28;20257;-83
2022/06/05 08:28:40;;;;;;;9.20;8.02;;;;;;;;;;5031723;28;20202;-83
2022/06/05 08:31:07;;;;;;;8.50;7.75;;;;;;;;;;5031548;28;20714;-83
2022/06/05 08:33:35;;;;;;;8.13;7.32;;;;;;;;;;5031702;28;20230;-84
2022/06/05 08:36:02;;;;;;;7.03;6.43;;;;;;;;;;5033411;28;20227;-84
2022/06/05 08:41:30;;;;;;;7.15;6.55;;;;;;;;;;5031611;28;20352;-82
2022/06/05 08:44:09;;;;;;;6.55;5.95;;;;;;;;;;5029623;28;20300;-85
2022/06/05 08:46:39;;;;;;;7.13;6.43;;;;;;;;;;5031111;28;20238;-84
2022/06/05 08:49:10;;;;;;;7.00;6.38;;;;;;;;;;5030001;28;20207;-83
2022/06/05 08:51:41;;;;;;;7.95;6.35;;;;;;;;;;5030849;28;20632;-82
2022/06/05 08:54:13;;;;;;;7.40;6.78;;;;;;;;;;5031563;28;20234;-83
2022/06/05 08:56:43;;;;;;;7.32;6.63;;;;;;;;;;5031751;28;20296;-83
2022/06/05 08:59:15;;;;;;;7.40;6.80;;;;;;;;;;5036110;28;20597;-83
2022/06/05 09:01:46;;;;;;;9.55;7.30;;;;;;;;;;5035340;28;20234;-82
2022/06/05 09:04:25;;;;;;;7.32;6.63;;;;;;;;;;5036144;28;20257;-83
2022/06/05 09:06:56;;;;;;;7.85;6.65;;;;;;;;;;5033352;28;20225;-83
2022/06/05 09:09:25;;;;;;;7.35;6.40;;;;;;;;;;5035888;28;20210;-83
2022/06/05 09:11:56;;;;;;;7.00;6.38;;;;;;;;;;5035751;28;20219;-84
2022/06/05 09:14:30;;;;;;;7.78;6.97;;;;;;;;;;5029842;28;20298;-84
2022/06/05 09:16:59;;;;;;;8.40;6.97;;;;;;;;;;5036764;28;20698;-83
2022/06/05 09:19:29;;;;;;;6.85;6.18;;;;;;;;;;5036062;28;20225;-82
2022/06/05 09:21:59;;;;;;;6.80;6.15;;;;;;;;;;5035577;28;20638;-84
2022/06/05 09:24:32;;;;;;;6.78;6.18;;;;;;;;;;5035965;28;20230;-85
2022/06/05 09:27:02;;;;;;;7.72;6.85;;;;;;;;;;5040698;28;20198;-85
2022/06/05 09:29:36;;;;;;;7.60;6.90;;;;;;;;;;5036636;28;20233;-83
2022/06/05 09:32:11;;;;;;;7.50;6.80;;;;;;;;;;5034840;28;20667;-84
2022/06/05 09:34:40;;;;;;;7.30;6.65;;;;;;;;;;5035576;28;20309;-85
2022/06/05 09:37:11;;;;;;;8.30;6.90;;;;;;;;;;5034280;28;20210;-84
2022/06/05 09:39:41;;;;;;;7.57;6.90;;;;;;;;;;5025876;28;20613;-85
2022/06/05 09:42:16;;;;;;;7.00;6.40;;;;;;;;;;5039489;28;20237;-83
2022/06/05 09:44:50;;;;;;;7.88;7.07;;;;;;;;;;5045237;28;20209;-85
2022/06/05 09:47:23;;;;;;;7.53;6.82;;;;;;;;;;5031266;28;20210;-86
2022/06/05 09:49:54;;;;;;;7.43;6.72;;;;;;;;;;5032197;28;20230;-83
2022/06/05 09:52:24;;;;;;;8.93;6.80;;;;;;;;;;5030459;28;20222;-84
2022/06/05 09:54:57;;;;;;;7.05;6.35;;;;;;;;;;5031967;28;20238;-81
2022/06/05 10:00:31;;;;;;;6.63;6.10;;;;;;;;;;5031233;28;20237;-83
2022/06/05 10:03:00;;;;;;;7.63;6.90;;;;;;;;;;5037108;28;20233;-83
2022/06/05 10:05:29;;;;;;;7.57;6.88;;;;;;;;;;5037077;28;20226;-84
2022/06/05 10:07:58;;;;;;;7.10;6.40;;;;;;;;;;5018107;28;20200;-82
2022/06/05 10:10:27;;;;;;;6.72;6.20;;;;;;;;;;5028620;28;20237;-83
2022/06/05 10:12:59;;;;;;;7.00;6.30;;;;;;;;;;5038603;28;20742;-82
2022/06/05 10:15:30;;;;;;;6.88;6.28;;;;;;;;;;5037509;28;20722;-82
2022/06/05 10:17:58;;;;;;;7.10;6.40;;;;;;;;;;5037634;28;20655;-84
2022/06/05 10:20:49;;;;;;;7.15;6.50;;;;;;;;;;5036964;28;20635;-84
2022/06/05 10:23:22;;;;;;;7.57;6.10;;;;;;;;;;5036837;28;20234;-84
2022/06/05 10:25:53;;;;;;;7.45;6.05;;;;;;;;;;5035965;28;20231;-83
2022/06/05 10:28:23;;;;;;;5.88;5.38;;;;;;;;;;5036366;28;20199;-82
2022/06/05 10:30:57;;;;;;;6.10;5.60;;;;;;;;;;5037296;28;20231;-78
2022/06/05 10:33:28;;;;;;;5.80;5.30;;;;;;;;;;5038414;28;20233;-79
2022/06/05 10:36:00;;;;;;;6.13;5.57;;;;;;;;;;5055785;28;20233;-78
2022/06/05 10:38:34;;;;;;;6.13;5.60;;;;;;;;;;5057449;28;20213;-79
2022/06/05 10:41:04;;;;;;;6.22;5.40;;;;;;;;;;5057302;28;20234;-79
2022/06/05 10:43:33;;;;;;;6.18;5.18;;;;;;;;;;5058198;28;20275;-79
2022/06/05 10:46:02;;;;;;;5.78;5.28;;;;;;;;;;5058046;28;20233;-78
2022/06/05 10:48:45;;;;;;;5.53;5.10;;;;;;;;;;5059512;28;20269;-80
2022/06/05 10:51:20;;;;;;;5.10;4.60;;;;;;;;;;5059106;28;20647;-80
2022/06/05 10:53:49;;;;;;;5.63;4.85;;;;;;;;;;5035134;28;20226;-79
2022/06/05 10:56:21;;;;;;;5.90;5.40;;;;;;;;;;5037329;28;20238;-80
2022/06/05 10:58:52;;;;;;;5.78;4.97;;;;;;;;;;5033355;28;20203;-81
2022/06/05 11:01:30;;;;;;;7.63;5.40;;;;;;;;;;5036289;28;20296;-80
2022/06/05 11:03:59;;;;;;;5.60;5.10;;;;;;;;;;5037430;28;20230;-81
2022/06/05 11:06:29;;;;;;;5.65;5.15;;;;;;;;;;5036903;28;20230;-81
2022/06/05 11:09:25;;;;;;;5.68;4.90;;;;;;;;;;5034687;28;20199;-81
2022/06/05 11:14:47;;;;;;;4.57;4.18;;;;;;;;;;5033595;28;20302;-81
2022/06/05 11:17:24;;;;;;;4.65;4.25;;;;;;;;;;5034797;28;20218;-82
2022/06/05 11:19:55;;;;;;;4.68;4.28;;;;;;;;;;5033765;28;20238;-84
2022/06/05 11:22:22;;;;;;;4.72;4.28;;;;;;;;;;5034840;28;20235;-82
2022/06/05 11:24:51;;;;;;;4.88;4.32;;;;;;;;;;5035142;28;20317;-81
2022/06/05 11:27:25;;;;;;;4.95;4.50;;;;;;;;;;5033085;28;20210;-81
2022/06/05 11:29:57;;;;;;;4.20;3.90;;;;;;;;;;5043164;28;20229;-80
2022/06/05 11:32:28;;;;;;;5.20;4.63;;;;;;;;;;5038610;28;21614;-81
2022/06/05 11:34:58;;;;;;;4.97;4.45;;;;;;;;;;5061249;22;20724;-81
2022/06/05 11:37:34;;;;;;;4.63;4.18;;;;;;;;;;5063642;28;20198;-81
2022/06/05 11:40:04;;;;;;;6.72;4.15;;;;;;;;;;5034692;28;20238;-81
2022/06/05 11:42:33;;;;;;;4.63;3.60;;;;;;;;;;5035920;28;20585;-82
2022/06/05 11:45:10;;;;;;;5.70;3.97;;;;;;;;;;5036986;28;20239;-82
2022/06/05 11:47:43;;;;;;;4.70;3.70;;;;;;;;;;5037613;28;20249;-82
2022/06/05 11:50:13;;;;;;;4.25;3.85;;;;;;;;;;5048654;28;20237;-82
2022/06/05 11:52:45;;;;;;;7.35;3.67;;;;;;;;;;5054045;28;20202;-82
2022/06/05 11:55:22;;;;;;;5.63;4.03;;;;;;;;;;5052926;28;20245;-82
2022/06/05 11:57:51;;;;;;;4.13;3.75;;;;;;;;;;5053743;28;20281;-82
2022/06/05 12:00:21;;;;;;;4.10;3.70;;;;;;;;;;5052504;28;20739;-82
2022/06/05 12:02:52;;;;;;;4.22;3.60;;;;;;;;;;5053320;28;20192;-82
2022/06/05 12:05:21;;;;;;;4.03;3.30;;;;;;;;;;5052503;28;20240;-82
2022/06/05 12:07:50;;;;;;;4.28;3.30;;;;;;;;;;5053569;28;20213;-83
2022/06/05 12:10:19;;;;;;;4.13;3.30;;;;;;;;;;5052491;28;20226;-82
2022/06/05 12:12:49;;;;;;;5.60;3.80;;;;;;;;;;5054125;28;20198;-82
2022/06/05 12:15:23;;;;;;;4.53;4.07;;;;;;;;;;5052054;28;20244;-84
2022/06/05 12:17:54;;;;;;;4.30;3.83;;;;;;;;;;5053586;28;20191;-83
2022/06/05 12:20:28;;;;;;;4.10;3.80;;;;;;;;;;5052800;28;20245;-83
2022/06/05 12:22:59;;;;;;;5.40;4.18;;;;;;;;;;5053796;28;20185;-82
2022/06/05 12:25:27;;;;;;;4.20;3.80;;;;;;;;;;5070347;28;20233;-82
2022/06/05 12:27:58;;;;;;;4.95;3.97;;;;;;;;;;5073299;28;20212;-82
2022/06/05 12:30:28;;;;;;;4.32;4.03;;;;;;;;;;5071941;28;20700;-82
2022/06/05 12:32:57;;;;;;;5.95;4.00;;;;;;;;;;5072347;28;20190;-83
2022/06/05 12:35:27;;;;;;;4.28;3.88;;;;;;;;;;5072020;28;20236;-82
2022/06/05 12:37:58;;;;;;;5.40;3.42;;;;;;;;;;5042234;28;20207;-82
2022/06/05 12:40:31;;;;;;;4.35;4.00;;;;;;;;;;5032912;28;20269;-82
2022/06/05 12:43:03;;;;;;;4.07;3.70;;;;;;;;;;5036706;28;20596;-82
2022/06/05 12:45:33;;;;;;;4.20;3.88;;;;;;;;;;5034124;28;20640;-82
2022/06/05 12:48:06;;;;;;;4.57;4.18;;;;;;;;;;5034039;28;20270;-83
2022/06/05 12:50:37;;;;;;;4.05;3.75;;;;;;;;;;5031186;28;20239;-83
2022/06/05 12:53:09;;;;;;;4.15;3.85;;;;;;;;;;5031589;28;20553;-82
2022/06/05 12:55:38;;;;;;;4.53;4.10;;;;;;;;;;5032597;28;20737;-82
2022/06/05 12:58:07;;;;;;;4.70;4.40;;;;;;;;;;5032927;28;20568;-82
2022/06/05 13:00:42;;;;;;;4.28;3.88;;;;;;;;;;5032368;28;20270;-82
2022/06/05 13:03:14;;;;;;;4.63;4.00;;;;;;;;;;5032613;28;20186;-82
2022/06/05 13:05:43;;;;;;;4.78;3.92;;;;;;;;;;5033608;28;20234;-81
2022/06/05 13:08:13;;;;;;;4.72;4.32;;;;;;;;;;5037078;28;20824;-81
2022/06/05 13:10:41;;;;;;;4.45;4.05;;;;;;;;;;5035450;28;20223;-80
2022/06/05 13:13:21;;;;;;;5.10;4.70;;;;;;;;;;5053880;28;20685;-80
2022/06/05 13:15:51;;;;;;;4.95;4.32;;;;;;;;;;5054864;28;20609;-81
2022/06/05 13:18:22;;;;;;;4.75;4.35;;;;;;;;;;5056204;28;20216;-81
2022/06/05 13:20:56;;;;;;;5.45;5.03;;;;;;;;;;5055833;28;20234;-81
2022/06/05 13:23:28;;;;;;;4.75;4.32;;;;;;;;;;5056391;28;20295;-81
2022/06/05 13:25:58;;;;;;;5.05;4.60;;;;;;;;;;5055912;28;20234;-80
2022/06/05 13:28:42;;;;;;;5.90;5.32;;;;;;;;;;5057245;28;20240;-81
2022/06/05 13:31:22;;;;;;;5.38;4.55;;;;;;;;;;5056287;28;20839;-80
2022/06/05 13:33:55;;;;;;;4.95;4.55;;;;;;;;;;5055612;28;20241;-81
2022/06/05 13:36:24;;;;;;;4.82;4.43;;;;;;;;;;5057203;28;20241;-80
2022/06/05 13:38:54;;;;;;;5.70;4.38;;;;;;;;;;5058436;28;20209;-80
2022/06/05 13:41:24;;;;;;;5.80;4.88;;;;;;;;;;5058890;28;20240;-80
2022/06/05 13:43:54;;;;;;;4.45;4.05;;;;;;;;;;5059021;28;20225;-80
2022/06/05 13:46:26;;;;;;;4.68;4.28;;;;;;;;;;5051602;28;20725;-81
2022/06/05 13:48:58;;;;;;;4.85;4.32;;;;;;;;;;5052139;28;20195;-81
2022/06/05 13:51:27;;;;;;;5.50;5.00;;;;;;;;;;5050706;28;20226;-80
2022/06/05 13:54:02;;;;;;;5.45;4.95;;;;;;;;;;5055763;28;20623;-80
2022/06/05 13:56:33;;;;;;;6.68;4.90;;;;;;;;;;5057642;28;20237;-81
2022/06/05 13:59:01;;;;;;;18.13;6.35;;;;;;;;;;5057492;28;20187;-80
2022/06/05 14:01:36;;;;;;;7.25;5.18;;;;;;;;;;5057128;28;20238;-80
2022/06/05 14:04:18;;;;;;;6.20;4.20;;;;;;;;;;5059322;28;20236;-82
2022/06/05 14:06:48;;;;;;;5.32;4.22;;;;;;;;;;5057187;28;20237;-82
2022/06/05 14:09:30;;;;;;;4.05;3.58;;;;;;;;;;5059532;28;20701;-82
2022/06/05 14:11:58;;;;;;;4.00;3.60;;;;;;;;;;5058373;28;20225;-81
2022/06/05 14:14:36;;;;;;;5.00;3.95;;;;;;;;;;5058106;28;20218;-82
2022/06/05 14:17:06;;;;;;;5.43;3.65;;;;;;;;;;5057265;28;20217;-82
2022/06/05 14:19:37;;;;;;;6.93;4.10;;;;;;;;;;5055771;28;20206;-82
2022/06/05 14:22:06;;;;;;;4.40;4.00;;;;;;;;;;5057754;28;20237;-81
2022/06/05 14:24:40;;;;;;;4.80;4.32;;;;;;;;;;5058164;28;20912;-83
2022/06/05 14:27:08;;;;;;;7.75;4.15;;;;;;;;;;5058338;28;20911;-82
2022/06/05 14:29:39;;;;;;;4.30;4.00;;;;;;;;;;5056490;28;20195;-80
2022/06/05 14:32:09;;;;;;;4.40;3.53;;;;;;;;;;5057273;28;20237;-80
2022/06/05 14:34:38;;;;;;;4.75;2.97;;;;;;;;;;5059113;28;20234;-80
2022/06/05 14:37:11;;;;;;;3.95;2.88;;;;;;;;;;5059413;28;20206;-80
2022/06/05 14:39:40;;;;;;;2.95;2.60;;;;;;;;;;5058064;28;20202;-81
2022/06/05 14:42:15;;;;;;;2.58;2.33;;;;;;;;;;5057943;28;20226;-81
2022/06/05 14:44:45;;;;;;;4.78;2.55;;;;;;;;;;5058132;28;20222;-82
2022/06/05 14:47:17;;;;;;;2.85;2.65;;;;;;;;;;5057634;28;20202;-81
2022/06/05 14:49:47;;;;;;;3.20;2.90;;;;;;;;;;5065829;28;20727;-82
2022/06/05 14:52:22;;;;;;;4.20;2.83;;;;;;;;;;5064986;28;20198;-82
2022/06/05 14:57:54;;;;;;;2.72;2.47;;;;;;;;;;5060007;28;20201;-82
2022/06/05 15:00:23;;;;;;;3.90;2.20;;;;;;;;;;5061916;28;20237;-81
2022/06/05 15:02:55;;;;;;;5.82;2.40;;;;;;;;;;5064850;28;20226;-82
2022/06/05 15:05:25;;;;;;;4.63;2.13;;;;;;;;;;5063126;28;20655;-82
2022/06/05 15:07:57;;;;;;;3.15;2.25;;;;;;;;;;5059431;28;20210;-82
2022/06/05 15:10:34;;;;;;;3.03;2.20;;;;;;;;;;5057249;28;20239;-81
2022/06/05 15:13:06;;;;;;;3.80;2.55;;;;;;;;;;5057438;28;20263;-82
2022/06/05 15:15:36;;;;;;;3.28;2.30;;;;;;;;;;5058043;28;20274;-82
2022/06/05 15:18:05;;;;;;;2.47;2.28;;;;;;;;;;5058637;28;20214;-80